Time;durP1;ratioP1;P1;durP2;ratioP2;P2;SDS_P1;SDS_P2;PMS_P1;PMS_P2;Temp;Humidity;BMP_temperature;BMP_pressure;BME280_temperature;BME280_humidity;BME280_pressure;Samples;Min_cycle;Max_cycle;Signal;HPM_P1;HPM_P2
2023/10/02 00:05:06;;;;;;;20.85;10.70;;;16.80;99.90;;;;;;5156802;27;20050;-23
2023/10/02 00:07:37;;;;;;;25.88;10.32;;;16.70;99.90;;;;;;5156840;27;20117;-23
2023/10/02 00:10:04;;;;;;;23.85;12.88;;;16.70;99.90;;;;;;5156743;27;20555;-23
2023/10/02 00:12:31;;;;;;;25.88;11.95;;;16.70;99.90;;;;;;5156041;27;20054;-23
2023/10/02 00:14:58;;;;;;;21.60;11.10;;;16.60;99.90;;;;;;5156923;27;20038;-23
2023/10/02 00:17:24;;;;;;;24.05;11.43;;;16.60;99.90;;;;;;5157120;27;20129;-23
2023/10/02 00:19:57;;;;;;;19.98;10.13;;;16.60;99.90;;;;;;5156562;27;20038;-23
2023/10/02 00:22:37;;;;;;;;;;;16.50;99.90;;;;;;5157599;27;20058;-23
2023/10/02 00:25:10;;;;;;;22.90;12.38;;;16.50;99.90;;;;;;5156504;27;19926;-23
2023/10/02 00:27:39;;;;;;;29.48;13.45;;;16.50;99.90;;;;;;5156316;27;20057;-23
2023/10/02 00:30:13;;;;;;;23.63;12.20;;;16.50;99.90;;;;;;5155101;27;20170;-23
2023/10/02 00:32:41;;;;;;;22.45;12.15;;;16.40;99.90;;;;;;5156638;27;20125;-23
2023/10/02 00:35:10;;;;;;;28.83;12.57;;;16.40;99.90;;;;;;5155264;27;20453;-23
2023/10/02 00:37:47;;;;;;;20.33;10.48;;;16.40;99.90;;;;;;5155246;27;20051;-23
2023/10/02 00:40:26;;;;;;;24.10;11.85;;;16.40;99.90;;;;;;5156156;27;20481;-23
2023/10/02 00:42:58;;;;;;;30.63;13.40;;;16.30;99.90;;;;;;5156742;27;20361;-23
2023/10/02 00:45:29;;;;;;;25.30;11.63;;;16.40;99.90;;;;;;5156023;27;20133;-23
2023/10/02 00:48:24;;;;;;;28.35;11.80;;;16.30;99.90;;;;;;5156066;27;20125;-23
2023/10/02 00:50:49;;;;;;;25.08;13.18;;;16.30;99.90;;;;;;5156203;27;20054;-23
2023/10/02 00:53:24;;;;;;;24.52;12.07;;;16.30;99.90;;;;;;5155921;27;20511;-23
2023/10/02 00:55:51;;;;;;;26.63;12.07;;;16.20;99.90;;;;;;5155847;27;20043;-23
2023/10/02 00:58:19;;;;;;;25.50;12.73;;;16.20;99.90;;;;;;5156737;27;20074;-23
2023/10/02 01:00:50;;;;;;;23.25;12.48;;;16.10;99.90;;;;;;5155832;27;20130;-23
2023/10/02 01:03:16;;;;;;;27.38;11.05;;;16.00;99.90;;;;;;5156454;27;20055;-23
2023/10/02 01:05:54;;;;;;;27.15;12.13;;;15.90;99.90;;;;;;5154727;27;20046;-23
2023/10/02 01:08:42;;;;;;;28.95;13.25;;;15.80;99.90;;;;;;5156210;27;20047;-23
2023/10/02 01:11:13;;;;;;;24.23;12.15;;;15.70;99.90;;;;;;5155675;27;20049;-23
2023/10/02 01:13:40;;;;;;;26.90;13.50;;;15.50;99.90;;;;;;5154531;27;20046;-23
2023/10/02 01:16:08;;;;;;;27.50;12.88;;;15.60;99.90;;;;;;5155569;27;20510;-23
2023/10/02 01:18:40;;;;;;;26.83;13.82;;;15.50;99.90;;;;;;5155237;27;20488;-23
2023/10/02 01:21:11;;;;;;;26.98;13.90;;;15.50;99.90;;;;;;5156152;27;20047;-22
2023/10/02 01:24:09;;;;;;;30.55;14.57;;;15.50;99.90;;;;;;5154326;27;20047;-22
2023/10/02 01:26:37;;;;;;;24.15;13.25;;;15.50;99.90;;;;;;5155490;27;20065;-22
2023/10/02 01:29:06;;;;;;;27.88;13.77;;;15.50;99.90;;;;;;5155352;27;20046;-22
2023/10/02 01:31:35;;;;;;;26.90;14.20;;;15.50;99.90;;;;;;5154211;27;20051;-22
2023/10/02 01:34:04;;;;;;;32.35;15.05;;;15.50;99.90;;;;;;5155350;27;20492;-22
2023/10/02 01:36:31;;;;;;;29.15;14.95;;;15.50;99.90;;;;;;5155380;27;20107;-22
2023/10/02 01:39:14;;;;;;;25.50;14.35;;;15.60;99.90;;;;;;5155966;27;20464;-22
2023/10/02 01:41:41;;;;;;;;;;;15.70;99.90;;;;;;5155781;27;20480;-22
2023/10/02 01:44:10;;;;;;;31.70;14.30;;;15.70;99.90;;;;;;5155299;27;20321;-22
2023/10/02 01:46:49;;;;;;;24.73;12.85;;;15.70;99.90;;;;;;5137825;27;20043;-22
2023/10/02 01:49:25;;;;;;;30.40;14.32;;;15.80;99.90;;;;;;5155212;27;20082;-22
2023/10/02 01:52:01;;;;;;;28.38;15.23;;;15.80;99.90;;;;;;5155843;27;20135;-22
2023/10/02 01:54:29;;;;;;;26.30;13.75;;;15.80;99.90;;;;;;5155039;27;20078;-22
2023/10/02 01:56:56;;;;;;;26.25;14.43;;;15.80;99.90;;;;;;5154866;27;20451;-22
2023/10/02 01:59:24;;;;;;;26.77;14.80;;;15.80;99.90;;;;;;5155197;27;20039;-21
2023/10/02 02:01:57;;;;;;;29.52;14.23;;;15.90;99.90;;;;;;5154185;27;20047;-22
2023/10/02 02:04:27;;;;;;;27.10;14.52;;;15.90;99.90;;;;;;5155502;27;20491;-22
2023/10/02 02:06:57;;;;;;;29.92;14.63;;;15.80;99.90;;;;;;5154934;27;20045;-22
2023/10/02 02:09:37;;;;;;;29.60;15.18;;;15.80;99.90;;;;;;5153591;27;20046;-22
2023/10/02 02:12:07;;;;;;;26.88;14.25;;;15.80;99.90;;;;;;5155091;27;20150;-22
2023/10/02 02:14:40;;;;;;;26.45;16.40;;;15.60;99.90;;;;;;5154982;27;20500;-23
2023/10/02 02:17:10;;;;;;;28.50;14.80;;;15.60;99.90;;;;;;5155672;27;20103;-22
2023/10/02 02:19:48;;;;;;;31.38;16.65;;;15.60;99.90;;;;;;5153960;27;20388;-22
2023/10/02 02:22:26;;;;;;;34.08;16.75;;;15.50;99.90;;;;;;5155579;27;20130;-22
2023/10/02 02:24:55;;;;;;;28.58;16.08;;;15.40;99.90;;;;;;5155230;27;20106;-22
2023/10/02 02:27:21;;;;;;;40.53;17.75;;;15.40;99.90;;;;;;5154610;27;20090;-22
2023/10/02 02:29:48;;;;;;;29.80;15.43;;;15.40;99.90;;;;;;5155043;27;20055;-23
2023/10/02 02:32:19;;;;;;;30.00;15.98;;;15.40;99.90;;;;;;5154814;27;20087;-23
2023/10/02 02:34:46;;;;;;;35.92;18.70;;;15.30;99.90;;;;;;5154176;27;20082;-22
2023/10/02 02:37:13;;;;;;;35.58;16.40;;;15.30;99.90;;;;;;5158801;27;20096;-23
2023/10/02 02:39:39;;;;;;;35.28;17.95;;;15.30;99.90;;;;;;5158487;27;20081;-22
2023/10/02 02:44:46;;;;;;;34.70;17.80;;;15.30;99.90;;;;;;5159338;27;20437;-22
2023/10/02 02:47:14;;;;;;;31.95;16.42;;;15.20;99.90;;;;;;5158423;27;20089;-23
2023/10/02 02:50:06;;;;;;;34.60;18.77;;;15.20;99.90;;;;;;5158277;27;20043;-22
2023/10/02 02:52:32;;;;;;;37.88;17.73;;;15.20;99.90;;;;;;5158348;27;20373;-23
2023/10/02 02:55:05;;;;;;;34.95;17.88;;;15.10;99.90;;;;;;5158993;27;20090;-22
2023/10/02 02:57:33;;;;;;;38.05;19.23;;;15.00;99.90;;;;;;5158359;27;20050;-22
2023/10/02 03:02:53;;;;;;;37.15;18.48;;;15.00;99.90;;;;;;5158107;27;20495;-22
2023/10/02 03:05:22;;;;;;;40.33;20.65;;;15.00;99.90;;;;;;5158957;27;20110;-22
2023/10/02 03:07:49;;;;;;;39.08;20.20;;;15.10;99.90;;;;;;5157013;27;20043;-22
2023/10/02 03:10:17;;;;;;;35.53;19.40;;;15.10;99.90;;;;;;5157868;27;20038;-22
2023/10/02 03:12:51;;;;;;;38.78;18.90;;;15.00;99.90;;;;;;5158190;27;20051;-22
2023/10/02 03:18:22;;;;;;;39.40;20.42;;;15.00;99.90;;;;;;5158401;27;20043;-22
2023/10/02 03:20:56;;;;;;;38.65;20.38;;;15.00;99.90;;;;;;5156796;27;20051;-22
2023/10/02 03:23:23;;;;;;;33.08;18.42;;;15.00;99.90;;;;;;5156701;27;20495;-22
2023/10/02 03:25:55;;;;;;;43.83;19.33;;;14.90;99.90;;;;;;5157699;27;20480;-22
2023/10/02 03:28:32;;;;;;;44.17;19.77;;;14.80;99.90;;;;;;5156602;27;20062;-22
2023/10/02 03:31:00;;;;;;;39.60;19.25;;;14.80;99.90;;;;;;5157907;27;20042;-22
2023/10/02 03:33:31;;;;;;;43.33;21.30;;;14.80;99.90;;;;;;5156527;27;20053;-22
2023/10/02 03:38:35;;;;;;;38.78;21.48;;;14.80;99.90;;;;;;5158043;27;20052;-22
2023/10/02 03:41:02;;;;;;;40.30;20.35;;;14.80;99.90;;;;;;5157445;27;20499;-22
2023/10/02 03:43:42;;;;;;;40.13;20.33;;;;;;;;;;5157340;27;20086;-21
2023/10/02 03:46:16;;;;;;;39.45;20.33;;;14.90;99.90;;;;;;5156720;27;20050;-23
2023/10/02 03:48:50;;;;;;;37.60;20.25;;;14.90;99.90;;;;;;5156799;27;20043;-22
2023/10/02 03:51:36;;;;;;;36.03;20.05;;;14.90;99.90;;;;;;5157215;27;20556;-22
2023/10/02 03:54:18;;;;;;;39.50;20.88;;;14.90;99.90;;;;;;5155958;27;20507;-22
2023/10/02 03:56:55;;;;;;;37.38;20.10;;;15.00;99.90;;;;;;5157014;27;20038;-22
2023/10/02 03:59:26;;;;;;;39.67;20.80;;;15.00;99.90;;;;;;5157040;27;20049;-22
2023/10/02 04:01:57;;;;;;;45.05;21.83;;;14.90;99.90;;;;;;5157245;27;20139;-22
2023/10/02 04:04:24;;;;;;;43.05;20.88;;;14.90;99.90;;;;;;5157012;27;20042;-23
2023/10/02 04:06:55;;;;;;;42.53;21.25;;;14.90;99.90;;;;;;5156812;27;20480;-22
2023/10/02 04:09:23;;;;;;;41.38;19.73;;;14.90;99.90;;;;;;5157348;27;20058;-23
2023/10/02 04:11:56;;;;;;;39.10;20.77;;;14.80;99.90;;;;;;5157299;27;20035;-23
2023/10/02 04:14:33;;;;;;;42.65;19.48;;;14.80;99.90;;;;;;5157568;27;20082;-23
2023/10/02 04:19:49;;;;;;;40.92;18.85;;;14.80;99.90;;;;;;5156605;27;20043;-22
2023/10/02 04:22:19;;;;;;;39.47;19.67;;;14.80;99.90;;;;;;5157130;27;20126;-22
2023/10/02 04:25:06;;;;;;;35.60;18.80;;;14.80;99.90;;;;;;5156839;27;20046;-23
2023/10/02 04:32:42;;;;;;;38.78;20.73;;;15.00;99.90;;;;;;5156400;27;20050;-22
2023/10/02 04:35:57;;;;;;;36.88;19.15;;;15.10;99.90;;;;;;5157136;27;20046;-23
2023/10/02 04:37:58;;;;;;;40.45;21.00;;;15.20;99.90;;;;;;5144029;27;20047;-23
2023/10/02 04:40:37;;;;;;;40.08;19.27;;;15.10;99.90;;;;;;5156215;27;20042;-22
2023/10/02 04:43:19;;;;;;;35.20;18.95;;;15.20;99.90;;;;;;5156776;27;20046;-22
2023/10/02 04:45:52;;;;;;;32.13;18.25;;;15.10;99.90;;;;;;5156975;27;20053;-23
2023/10/02 04:48:26;;;;;;;36.28;19.35;;;15.10;99.90;;;;;;5155935;27;20054;-23
2023/10/02 04:50:56;;;;;;;39.38;19.42;;;15.00;99.90;;;;;;5156619;27;20039;-22
2023/10/02 04:53:25;;;;;;;32.95;17.55;;;15.00;99.90;;;;;;5155957;27;20046;-23
2023/10/02 04:56:07;;;;;;;33.58;17.95;;;15.00;99.90;;;;;;5155770;27;20511;-23
2023/10/02 04:58:39;;;;;;;31.58;17.52;;;14.90;99.90;;;;;;5156485;27;20058;-23
2023/10/02 05:03:36;;;;;;;36.75;18.63;;;14.80;99.90;;;;;;5156606;27;20050;-23
2023/10/02 05:06:04;;;;;;;39.95;18.92;;;14.80;99.90;;;;;;5155743;27;20047;-23
2023/10/02 05:08:41;;;;;;;37.60;19.90;;;14.70;99.90;;;;;;5156193;27;20130;-22
2023/10/02 05:11:21;;;;;;;34.55;18.50;;;14.70;99.90;;;;;;5155571;27;20054;-23
2023/10/02 05:16:29;;;;;;;40.03;19.15;;;14.50;99.90;;;;;;5155608;27;20511;-22
2023/10/02 05:18:56;;;;;;;37.80;19.13;;;14.50;99.90;;;;;;5155679;27;20047;-23
2023/10/02 05:21:35;;;;;;;36.03;19.60;;;14.40;99.90;;;;;;5155525;27;20043;-22
2023/10/02 05:24:07;;;;;;;36.25;19.77;;;14.30;99.90;;;;;;5155513;27;20051;-22
2023/10/02 05:26:36;;;;;;;36.75;19.65;;;14.30;99.90;;;;;;5155852;27;20054;-22
2023/10/02 05:29:05;;;;;;;49.22;21.42;;;14.30;99.90;;;;;;5155345;27;20054;-23
2023/10/02 05:31:40;;;;;;;40.03;20.80;;;14.20;99.90;;;;;;5155409;27;20050;-22
2023/10/02 05:34:13;;;;;;;44.15;20.67;;;14.20;99.90;;;;;;5154424;27;20050;-22
2023/10/02 05:37:03;;;;;;;37.40;20.13;;;14.20;99.90;;;;;;5156279;27;20380;-22
2023/10/02 05:39:39;;;;;;;47.00;22.23;;;14.10;99.90;;;;;;5155535;27;20065;-22
2023/10/02 05:42:19;;;;;;;41.58;20.90;;;14.20;99.90;;;;;;5155620;27;20045;-22
2023/10/02 05:44:45;;;;;;;43.65;20.63;;;14.20;99.90;;;;;;5156187;27;20102;-23
2023/10/02 05:47:15;;;;;;;40.47;20.20;;;14.20;99.90;;;;;;5154812;27;20460;-23
2023/10/02 05:49:48;;;;;;;45.88;21.40;;;14.30;99.90;;;;;;5155794;27;20045;-22
2023/10/02 05:52:18;;;;;;;43.97;21.85;;;14.20;99.90;;;;;;5154337;27;20513;-23
2023/10/02 05:54:53;;;;;;;41.90;21.33;;;14.20;99.90;;;;;;5154479;27;20043;-23
2023/10/02 05:57:19;;;;;;;48.53;22.25;;;14.30;99.90;;;;;;5154897;27;20392;-22
2023/10/02 05:59:48;;;;;;;44.45;21.63;;;14.40;99.90;;;;;;5155154;27;20050;-22
2023/10/02 06:02:24;;;;;;;44.17;22.27;;;14.50;99.90;;;;;;5153860;27;20383;-23
2023/10/02 06:04:54;;;;;;;42.75;22.08;;;14.60;99.90;;;;;;5154864;27;20500;-23
2023/10/02 06:10:18;;;;;;;36.53;19.77;;;14.60;99.90;;;;;;5155487;27;20043;-23
2023/10/02 06:12:50;;;;;;;39.28;20.60;;;14.70;99.90;;;;;;5159464;27;20395;-23
2023/10/02 06:18:01;;;;;;;40.33;19.58;;;14.70;99.90;;;;;;5159312;27;20132;-23
2023/10/02 06:20:27;;;;;;;39.30;20.10;;;14.70;99.90;;;;;;5159793;27;20488;-23
2023/10/02 06:23:05;;;;;;;41.85;20.88;;;14.80;99.90;;;;;;5158134;27;20070;-23
2023/10/02 06:25:31;;;;;;;36.05;20.92;;;14.70;99.90;;;;;;5157795;27;20057;-22
2023/10/02 06:28:19;;;;;;;44.58;21.08;;;14.70;99.90;;;;;;5158688;27;20046;-22
2023/10/02 06:30:43;;;;;;;36.75;20.35;;;14.70;99.90;;;;;;5158810;27;20039;-23
2023/10/02 06:33:10;;;;;;;37.80;20.42;;;14.70;99.90;;;;;;5158386;27;20506;-22
2023/10/02 06:35:46;;;;;;;45.80;24.88;;;14.80;99.90;;;;;;5158633;27;20051;-22
2023/10/02 06:38:19;;;;;;;43.70;20.58;;;14.70;99.90;;;;;;5159508;27;20078;-23
2023/10/02 06:40:55;;;;;;;37.83;18.95;;;14.80;99.90;;;;;;5158603;27;20548;-23
2023/10/02 06:43:29;;;;;;;38.92;20.90;;;14.90;99.90;;;;;;5158804;27;20515;-23
2023/10/02 06:46:06;;;;;;;38.92;21.80;;;15.00;99.90;;;;;;5158132;27;20400;-22
2023/10/02 06:48:34;;;;;;;35.83;19.55;;;15.00;99.90;;;;;;5158395;27;20047;-23
2023/10/02 06:51:07;;;;;;;44.50;20.70;;;15.10;99.90;;;;;;5158339;27;20464;-22
2023/10/02 06:53:33;;;;;;;39.15;20.33;;;15.20;99.90;;;;;;5158996;27;20046;-22
2023/10/02 06:56:09;;;;;;;39.47;20.10;;;15.20;99.90;;;;;;5157211;27;20058;-23
2023/10/02 06:58:57;;;;;;;42.15;20.63;;;15.20;99.90;;;;;;5157997;27;20366;-23
2023/10/02 07:01:27;;;;;;;40.22;20.40;;;15.30;99.90;;;;;;5157804;27;20066;-22
2023/10/02 07:03:54;;;;;;;34.85;19.75;;;15.40;99.90;;;;;;5157808;27;20047;-22
2023/10/02 07:06:26;;;;;;;37.10;19.42;;;15.50;99.90;;;;;;5157404;27;20043;-23
2023/10/02 07:09:10;;;;;;;36.63;20.50;;;15.50;99.90;;;;;;5157634;27;20047;-23
2023/10/02 07:11:44;;;;;;;43.60;21.10;;;15.60;99.90;;;;;;5158000;27;20079;-23
2023/10/02 07:14:10;;;;;;;33.38;19.73;;;15.70;99.90;;;;;;5157953;27;20046;-23
2023/10/02 07:16:37;;;;;;;36.88;18.92;;;15.90;99.90;;;;;;5157786;27;20130;-23
2023/10/02 07:19:04;;;;;;;38.97;20.70;;;15.90;99.90;;;;;;5158288;27;20077;-23
2023/10/02 07:21:31;;;;;;;34.28;20.10;;;16.00;99.90;;;;;;5157525;27;20504;-23
2023/10/02 07:24:03;;;;;;;37.08;20.13;;;16.10;99.90;;;;;;5156747;27;20051;-22
2023/10/02 07:26:49;;;;;;;35.97;19.58;;;16.20;99.90;;;;;;5157585;27;20090;-22
2023/10/02 07:29:17;;;;;;;37.38;19.67;;;16.30;99.90;;;;;;5157573;27;20046;-23
2023/10/02 07:31:44;;;;;;;34.97;19.80;;;16.40;99.90;;;;;;5156374;27;20047;-23
2023/10/02 07:34:15;;;;;;;39.17;19.83;;;16.50;99.90;;;;;;5157587;27;20090;-23
2023/10/02 07:36:44;;;;;;;35.78;20.20;;;16.70;99.90;;;;;;5156932;27;20089;-23
2023/10/02 07:42:04;;;;;;;45.58;20.67;;;16.90;99.90;;;;;;5157357;27;20086;-23
2023/10/02 07:44:39;;;;;;;32.95;20.65;;;17.00;99.90;;;;;;5157931;27;20050;-23
2023/10/02 07:47:21;;;;;;;38.00;20.55;;;17.00;99.90;;;;;;5157914;27;20125;-23
2023/10/02 07:49:51;;;;;;;38.63;19.67;;;17.10;99.90;;;;;;5156016;27;20042;-23
2023/10/02 07:52:29;;;;;;;39.25;19.77;;;17.20;99.90;;;;;;5157172;27;20480;-23
2023/10/02 07:54:59;;;;;;;36.00;20.70;;;17.30;99.90;;;;;;5157120;27;20058;-22
2023/10/02 07:57:32;;;;;;;39.75;19.88;;;17.40;99.90;;;;;;5157090;27;20046;-23
2023/10/02 08:00:33;;;;;;;37.92;19.60;;;17.40;99.90;;;;;;5157640;27;20396;-23
2023/10/02 08:02:52;;;;;;;36.75;19.50;;;17.40;99.90;;;;;;5157133;27;20054;-23
2023/10/02 08:05:20;;;;;;;33.55;18.95;;;17.50;99.90;;;;;;5157757;27;20074;-23
2023/10/02 08:07:46;;;;;;;35.47;19.25;;;17.50;99.90;;;;;;5156524;27;20056;-23
2023/10/02 08:10:15;;;;;;;34.15;18.98;;;17.60;99.90;;;;;;5156979;27;20075;-23
2023/10/02 08:12:54;;;;;;;37.92;20.00;;;17.70;99.90;;;;;;5156720;27;20050;-23
2023/10/02 08:15:26;;;;;;;37.58;19.10;;;17.80;99.90;;;;;;5155432;27;20042;-23
2023/10/02 08:20:24;;;;;;;37.20;19.23;;;17.90;99.90;;;;;;5156535;27;20268;-23
2023/10/02 08:22:52;;;;;;;38.60;20.25;;;17.90;99.90;;;;;;5157152;27;20392;-23
2023/10/02 08:25:23;;;;;;;36.25;19.98;;;18.10;99.90;;;;;;5156509;27;20042;-23
2023/10/02 08:27:55;;;;;;;42.50;20.13;;;18.20;99.90;;;;;;5155370;27;20070;-23
2023/10/02 08:30:36;;;;;;;34.72;19.77;;;18.20;99.90;;;;;;5155994;27;20053;-23
2023/10/02 08:33:08;;;;;;;37.20;20.63;;;18.40;99.90;;;;;;5155810;27;20059;-23
2023/10/02 08:35:40;;;;;;;36.92;20.15;;;18.50;99.90;;;;;;5157019;27;20046;-23
2023/10/02 08:38:21;;;;;;;35.83;20.20;;;18.60;99.90;;;;;;5155025;27;20054;-23
2023/10/02 08:40:57;;;;;;;41.20;21.48;;;18.90;99.90;;;;;;5156527;27;20053;-23
2023/10/02 08:43:27;;;;;;;33.22;18.52;;;19.20;99.90;;;;;;5156002;27;20043;-23
2023/10/02 08:45:54;;;;;;;34.40;19.52;;;19.30;99.90;;;;;;5156123;27;20170;-23
2023/10/02 08:48:21;;;;;;;35.70;19.45;;;19.20;99.90;;;;;;5156095;27;20130;-23
2023/10/02 08:50:47;;;;;;;40.63;21.25;;;19.00;99.90;;;;;;5154750;27;20043;-23
2023/10/02 08:53:23;;;;;;;39.72;21.42;;;18.80;99.90;;;;;;5154653;27;20085;-23
2023/10/02 08:56:01;;;;;;;47.88;23.42;;;18.60;99.90;;;;;;5155876;27;20042;-23
2023/10/02 08:58:31;;;;;;;38.20;19.27;;;18.60;99.90;;;;;;5155890;27;20047;-23
2023/10/02 09:03:43;;;;;;;47.50;22.90;;;18.60;99.90;;;;;;5155702;27;20134;-23
2023/10/02 09:06:35;;;;;;;40.97;21.25;;;18.70;99.90;;;;;;5155135;27;20054;-23
2023/10/02 09:11:44;;;;;;;42.08;20.95;;;18.70;99.90;;;;;;5155707;27;20062;-23
2023/10/02 09:16:47;;;;;;;41.67;22.00;;;18.80;99.90;;;;;;5139137;27;20055;-23
2023/10/02 09:19:30;;;;;;;43.83;21.48;;;18.80;99.90;;;;;;5154312;27;20377;-23
2023/10/02 09:22:06;;;;;;;43.45;21.35;;;18.90;99.90;;;;;;5156154;27;20140;-23
2023/10/02 09:24:36;;;;;;;39.63;21.05;;;18.90;99.90;;;;;;5156131;27;20190;-23
2023/10/02 09:27:25;;;;;;;47.53;21.40;;;19.00;99.90;;;;;;5155366;27;20514;-23
2023/10/02 09:32:47;;;;;;;40.38;21.05;;;19.10;99.90;;;;;;5155275;27;20051;-23
2023/10/02 09:35:21;;;;;;;38.22;20.60;;;19.30;99.90;;;;;;5155536;27;20395;-23
2023/10/02 09:37:55;;;;;;;39.22;20.77;;;19.50;99.90;;;;;;5155271;27;20381;-23
2023/10/02 09:40:28;;;;;;;39.15;20.95;;;19.50;99.90;;;;;;5155628;27;20496;-23
2023/10/02 09:43:03;;;;;;;38.45;19.45;;;19.60;99.90;;;;;;5155895;27;20039;-23
2023/10/02 09:45:31;;;;;;;39.72;20.70;;;19.70;99.90;;;;;;5156504;27;20046;-23
2023/10/02 09:48:05;;;;;;;40.17;20.42;;;20.20;99.90;;;;;;5158399;27;20051;-23
2023/10/02 09:50:37;;;;;;;39.40;20.85;;;20.50;99.90;;;;;;5160083;27;20035;-24
2023/10/02 09:53:08;;;;;;;37.70;19.98;;;20.90;99.90;;;;;;5160392;27;20042;-23
2023/10/02 09:56:13;;;;;;;42.60;20.63;;;20.80;99.90;;;;;;5159560;27;20512;-23
2023/10/02 09:59:12;;;;;;;32.53;18.88;;;20.30;99.90;;;;;;5117735;27;20056;-23
2023/10/02 10:01:38;;;;;;;34.08;18.70;;;20.40;99.90;;;;;;5159166;27;20047;-23
2023/10/02 10:04:32;;;;;;;32.78;17.60;;;20.70;99.90;;;;;;5159180;27;20400;-23
2023/10/02 10:07:09;;;;;;;33.67;17.90;;;20.60;99.90;;;;;;5158055;27;20047;-23
2023/10/02 10:09:54;;;;;;;38.10;18.20;;;20.90;99.90;;;;;;5141643;27;20047;-23
2023/10/02 10:12:54;;;;;;;32.35;19.13;;;21.70;99.90;;;;;;5159157;27;20053;-24
2023/10/02 10:15:27;;;;;;;38.33;18.38;;;22.00;99.90;;;;;;5159065;27;20046;-23
2023/10/02 10:17:56;;;;;;;30.63;17.83;;;22.00;99.90;;;;;;5159651;27;20042;-23
2023/10/02 10:20:26;;;;;;;29.85;16.95;;;21.90;99.90;;;;;;5159017;27;20050;-24
2023/10/02 10:22:55;;;;;;;32.47;17.88;;;21.60;99.90;;;;;;5159771;27;20046;-23
2023/10/02 10:27:54;;;;;;;32.67;17.27;;;21.90;99.90;;;;;;5159236;27;20488;-24
2023/10/02 10:30:28;;;;;;;29.63;18.10;;;22.40;99.90;;;;;;5157868;27;20050;-24
2023/10/02 10:35:38;;;;;;;24.60;15.68;;;23.10;99.90;;;;;;5159572;27;20086;-23
2023/10/02 10:38:37;;;;;;;32.42;18.90;;;23.10;99.90;;;;;;5157638;27;20171;-23
2023/10/02 10:41:27;;;;;;;33.10;18.92;;;22.90;99.90;;;;;;5158553;27;20047;-22
2023/10/02 10:46:22;;;;;;;29.85;16.95;;;22.50;99.90;;;;;;5159310;27;20087;-23
2023/10/02 10:49:23;;;;;;;30.30;17.80;;;22.70;99.90;;;;;;5158275;27;20049;-23
2023/10/02 10:51:53;;;;;;;26.35;15.75;;;22.80;99.90;;;;;;5158994;27;20049;-23
2023/10/02 10:54:22;;;;;;;31.58;16.15;;;22.50;99.90;;;;;;5158336;27;20050;-23
2023/10/02 10:57:18;;;;;;;31.65;16.83;;;22.50;99.90;;;;;;5157701;27;20078;-23
2023/10/02 11:00:23;;;;;;;29.00;17.13;;;22.20;99.90;;;;;;5157272;27;20097;-23
2023/10/02 11:02:54;;;;;;;32.03;16.58;;;22.20;99.90;;;;;;5158065;27;20054;-23
2023/10/02 11:05:20;;;;;;;32.20;16.90;;;21.80;99.90;;;;;;5158387;27;20123;-23
2023/10/02 11:07:47;;;;;;;34.15;18.33;;;21.50;99.90;;;;;;5158097;27;20043;-23
2023/10/02 11:10:25;;;;;;;31.58;17.10;;;21.40;99.90;;;;;;5157894;27;20046;-23
2023/10/02 11:12:59;;;;;;;31.50;17.17;;;21.30;99.90;;;;;;5158206;27;20373;-24
2023/10/02 11:18:20;;;;;;;38.42;18.23;;;21.30;99.90;;;;;;5157361;27;20396;-23
2023/10/02 11:21:00;;;;;;;33.03;17.40;;;21.40;99.90;;;;;;5158389;27;20050;-23
2023/10/02 11:23:37;;;;;;;28.08;17.23;;;21.80;99.90;;;;;;5158371;27;20425;-23
2023/10/02 11:26:14;;;;;;;32.28;18.40;;;22.00;99.90;;;;;;5157470;27;20144;-22
2023/10/02 11:28:44;;;;;;;31.73;18.27;;;22.10;99.90;;;;;;5157590;27;20046;-23
2023/10/02 11:31:29;;;;;;;28.67;16.50;;;22.00;99.90;;;;;;5156468;27;20046;-24
2023/10/02 11:34:11;;;;;;;27.10;17.42;;;22.10;99.90;;;;;;5157558;27;20496;-23
2023/10/02 11:36:43;;;;;;;25.13;15.82;;;22.30;99.90;;;;;;5158446;27;20111;-23
2023/10/02 11:39:16;;;;;;;29.70;16.10;;;22.70;99.90;;;;;;5122906;27;20050;-23
2023/10/02 11:41:43;;;;;;;24.30;15.63;;;22.80;99.90;;;;;;5158165;27;20058;-23
2023/10/02 11:44:12;;;;;;;28.70;16.00;;;22.60;99.90;;;;;;5156371;27;20043;-23
2023/10/02 11:46:43;;;;;;;23.98;14.38;;;22.70;99.90;;;;;;5157170;27;20057;-23
2023/10/02 11:49:10;;;;;;;28.30;14.55;;;22.80;99.90;;;;;;5157207;27;20034;-23
2023/10/02 11:51:38;;;;;;;23.13;14.52;;;22.80;99.90;;;;;;5157759;27;20121;-23
2023/10/02 11:54:13;;;;;;;22.25;13.75;;;22.90;99.90;;;;;;5157416;27;20038;-23
2023/10/02 11:56:39;;;;;;;23.83;14.15;;;23.10;99.90;;;;;;5157049;27;20049;-23
2023/10/02 11:59:06;;;;;;;21.90;12.30;;;22.80;99.90;;;;;;5157638;27;20078;-23
2023/10/02 12:01:37;;;;;;;23.63;13.30;;;22.80;99.90;;;;;;5156537;27;20051;-23
2023/10/02 12:04:04;;;;;;;23.15;12.60;;;22.80;99.90;;;;;;5156289;27;20142;-23
2023/10/02 12:06:30;;;;;;;22.35;12.90;;;22.90;99.90;;;;;;5155921;27;20046;-23
2023/10/02 12:08:57;;;;;;;23.58;13.50;;;22.80;99.90;;;;;;5137288;27;20391;-23
2023/10/02 12:11:28;;;;;;;23.33;13.40;;;22.80;99.90;;;;;;5156726;27;20058;-23
2023/10/02 12:13:56;;;;;;;27.38;14.90;;;22.70;99.90;;;;;;5157259;27;20369;-23
2023/10/02 12:16:22;;;;;;;25.25;12.65;;;22.60;99.90;;;;;;5157261;27;20050;-23
2023/10/02 12:18:55;;;;;;;26.77;12.88;;;22.60;99.90;;;;;;5156555;27;20045;-23
2023/10/02 12:21:21;;;;;;;22.67;12.43;;;22.50;99.90;;;;;;5156584;27;20046;-24
2023/10/02 12:23:48;;;;;;;21.52;12.93;;;22.30;99.90;;;;;;5151327;27;20087;-23
2023/10/02 12:26:15;;;;;;;25.55;12.93;;;22.40;99.90;;;;;;5151271;27;20063;-23
2023/10/02 12:28:42;;;;;;;25.42;14.13;;;22.20;99.90;;;;;;5155770;27;20365;-24
2023/10/02 12:31:15;;;;;;;26.92;14.38;;;22.20;99.90;;;;;;5137406;27;20047;-23
2023/10/02 12:33:43;;;;;;;25.80;14.32;;;22.00;99.90;;;;;;5135385;27;20520;-24
2023/10/02 12:36:15;;;;;;;26.40;13.98;;;21.90;99.90;;;;;;5137108;27;20069;-23
2023/10/02 12:38:41;;;;;;;25.10;12.57;;;22.00;99.90;;;;;;5136201;27;20051;-23
2023/10/02 12:41:30;;;;;;;25.00;14.48;;;22.10;99.90;;;;;;5135444;27;20388;-24
2023/10/02 12:43:56;;;;;;;24.42;13.43;;;22.00;99.90;;;;;;5135479;27;20043;-23
2023/10/02 12:46:28;;;;;;;24.27;13.95;;;22.00;99.90;;;;;;5144956;27;20129;-23
2023/10/02 12:49:04;;;;;;;23.67;13.07;;;21.90;99.90;;;;;;5156314;27;20034;-24
2023/10/02 12:51:31;;;;;;;22.40;12.82;;;21.90;99.90;;;;;;5156667;27;20046;-23
2023/10/02 12:54:03;;;;;;;24.23;13.43;;;21.90;99.90;;;;;;5155995;27;20042;-23
2023/10/02 12:56:30;;;;;;;;;;;21.90;99.90;;;;;;5155096;27;20058;-23
2023/10/02 12:58:55;;;;;;;23.48;13.65;;;21.90;99.90;;;;;;5155260;27;19919;-24
2023/10/02 13:01:27;;;;;;;23.48;12.80;;;21.90;99.90;;;;;;5156482;27;20510;-23
2023/10/02 13:03:59;;;;;;;23.80;13.13;;;22.10;99.90;;;;;;5154645;27;20086;-23
2023/10/02 13:06:27;;;;;;;23.90;12.45;;;21.90;99.90;;;;;;5155446;27;20041;-23
2023/10/02 13:08:59;;;;;;;22.75;13.82;;;22.00;99.90;;;;;;5137405;27;20051;-23
2023/10/02 13:11:24;;;;;;;24.20;14.05;;;21.80;99.90;;;;;;5154594;27;20039;-24
2023/10/02 13:13:53;;;;;;;25.77;15.45;;;22.00;99.90;;;;;;5155711;27;20038;-24
2023/10/02 13:16:19;;;;;;;25.35;14.32;;;22.10;99.90;;;;;;5155318;27;20094;-23
2023/10/02 13:18:46;;;;;;;23.50;14.10;;;22.10;99.90;;;;;;5154378;27;20053;-23
2023/10/02 13:21:18;;;;;;;26.17;15.40;;;22.00;99.90;;;;;;5155497;27;20137;-23
2023/10/02 13:23:44;;;;;;;25.70;13.27;;;22.00;99.90;;;;;;5155649;27;20043;-23
2023/10/02 13:26:10;;;;;;;25.80;14.88;;;21.70;99.90;;;;;;5136770;27;20074;-23
2023/10/02 13:28:39;;;;;;;23.85;13.45;;;21.80;99.90;;;;;;5151988;27;20125;-23
2023/10/02 13:31:14;;;;;;;29.10;13.77;;;21.80;99.90;;;;;;5121083;27;20058;-23
2023/10/02 13:33:41;;;;;;;26.25;14.35;;;21.80;99.90;;;;;;5153204;27;20057;-23
2023/10/02 13:36:09;;;;;;;25.58;14.95;;;21.90;99.90;;;;;;5136176;27;20051;-23
2023/10/02 13:38:35;;;;;;;21.65;13.63;;;21.90;99.90;;;;;;5134663;27;20206;-23
2023/10/02 13:41:11;;;;;;;25.15;13.50;;;22.00;99.90;;;;;;5139584;27;20043;-23
2023/10/02 13:43:43;;;;;;;25.48;13.15;;;22.00;99.90;;;;;;5150577;27;20046;-23
2023/10/02 13:46:10;;;;;;;23.45;13.43;;;22.10;99.90;;;;;;5153137;27;20082;-23
2023/10/02 13:48:41;;;;;;;25.27;13.40;;;22.00;99.90;;;;;;5134468;27;20039;-23
2023/10/02 13:51:07;;;;;;;20.92;13.20;;;22.10;99.90;;;;;;5147380;27;20042;-23
2023/10/02 13:53:34;;;;;;;24.48;12.65;;;22.00;99.90;;;;;;5147102;27;20129;-24
2023/10/02 13:56:09;;;;;;;21.60;12.32;;;21.90;99.90;;;;;;5155123;27;20042;-23